PWSweather.com
Personal Weather Stations
Station Observations
KD5LEN
Ktxnorth1, North Richland Hills, TX 76180

Ktxnorth1North Richland Hills, TX 76180

Lat: 32.885294, Lon: -97.236048

Elevation: 694

Station Type: Vantage Pro 2

http://www.atzer0.net/VWS/root/index.htm

Latest ConditionsUpdated 12:43:48 PM CST Sunday, Nov 17, 2019
Currently Today's Max Today's Min Today's Average
Temperature 63.2°F17.3°C 63.2°F17.3°C 42.7°F5.9°C 49.0°F9.4°C
Dew Point 41.5°F5.3°C 42.0°F5.6°C 34.6°F1.4°C 37.1°F2.8°C
Winds 10.0 mph WNW16.1 kmh WNW 11.0 mph -17.7 kmh - - 3.1 mph 5.0 kmh
Wind Gusts 11.0 mph17.7 kmh 14.0 mph22.5 kmh - -
Humidity 45% 74% 45% 64%
Pressure 29.95 in1014.2 mb 30.01 in1016.3 mb 29.95 in1014.2 mb -
Hour Temp Dew Point Humidity Winds Wind Gusts Pressure Precip Precip Rate Daily Precip Total
12:43 PM 63.2°F17.3°C 41.5°F5.3°C 45% 10.0 mph WNW16.1 kmh WNW 11.0 mph17.7 kmh 29.95 in1014.2 mb 0.00 in0.0 mm 0.00 in0.0 mm 0.00 in0.0 mm
12:41 PM 63.1°F17.3°C 42.0°F5.6°C 46% 6.0 mph NW9.7 kmh NW 8.0 mph12.9 kmh 29.95 in1014.2 mb 0.00 in0.0 mm 0.00 in0.0 mm 0.00 in0.0 mm
12:40 PM 63.0°F17.2°C 41.9°F5.5°C 46% 2.0 mph NW3.2 kmh NW 8.0 mph12.9 kmh 29.95 in1014.2 mb 0.00 in0.0 mm 0.00 in0.0 mm 0.00 in0.0 mm
12:38 PM 62.8°F17.1°C 41.7°F5.4°C 46% 4.0 mph NNW6.4 kmh NNW 8.0 mph12.9 kmh 29.95 in1014.2 mb 0.00 in0.0 mm 0.00 in0.0 mm 0.00 in0.0 mm
12:36 PM 62.6°F17.0°C 41.6°F5.3°C 46% 1.0 mph NW1.6 kmh NW 8.0 mph12.9 kmh 29.95 in1014.2 mb 0.00 in0.0 mm 0.00 in0.0 mm 0.00 in0.0 mm
12:34 PM 62.6°F17.0°C 41.6°F5.3°C 46% 3.0 mph W4.8 kmh W 8.0 mph12.9 kmh 29.96 in1014.6 mb 0.00 in0.0 mm 0.00 in0.0 mm 0.00 in0.0 mm
12:32 PM 62.6°F17.0°C 41.6°F5.3°C 46% 1.0 mph NNW1.6 kmh NNW 12.0 mph19.3 kmh 29.96 in1014.6 mb 0.00 in0.0 mm 0.00 in0.0 mm 0.00 in0.0 mm
12:30 PM 62.7°F17.1°C 41.6°F5.3°C 46% 7.0 mph NW11.3 kmh NW 12.0 mph19.3 kmh 29.96 in1014.6 mb 0.00 in0.0 mm 0.00 in0.0 mm 0.00 in0.0 mm
12:28 PM 62.6°F17.0°C 41.6°F5.3°C 46% 6.0 mph NNW9.7 kmh NNW 12.0 mph19.3 kmh 29.96 in1014.6 mb 0.00 in0.0 mm 0.00 in0.0 mm 0.00 in0.0 mm
12:26 PM 62.6°F17.0°C 41.6°F5.3°C 46% 10.0 mph NNW16.1 kmh NNW 12.0 mph19.3 kmh 29.96 in1014.6 mb 0.00 in0.0 mm 0.00 in0.0 mm 0.00 in0.0 mm
12:24 PM 62.6°F17.0°C 41.6°F5.3°C 46% 8.0 mph N12.9 kmh N 9.0 mph14.5 kmh 29.96 in1014.6 mb 0.00 in0.0 mm 0.00 in0.0 mm 0.00 in0.0 mm
12:22 PM 62.8°F17.1°C 41.7°F5.4°C 46% 4.0 mph NE6.4 kmh NE 9.0 mph14.5 kmh 29.96 in1014.6 mb 0.00 in0.0 mm 0.00 in0.0 mm 0.00 in0.0 mm
12:20 PM 62.8°F17.1°C 41.7°F5.4°C 46% 5.0 mph NW8.0 kmh NW 9.0 mph14.5 kmh 29.96 in1014.6 mb 0.00 in0.0 mm 0.00 in0.0 mm 0.00 in0.0 mm
12:18 PM 62.8°F17.1°C 41.7°F5.4°C 46% 4.0 mph NNW6.4 kmh NNW 9.0 mph14.5 kmh 29.96 in1014.6 mb 0.00 in0.0 mm 0.00 in0.0 mm 0.00 in0.0 mm
12:16 PM 62.6°F17.0°C 41.6°F5.3°C 46% 2.0 mph NNW3.2 kmh NNW 9.0 mph14.5 kmh 29.96 in1014.6 mb 0.00 in0.0 mm 0.00 in0.0 mm 0.00 in0.0 mm
12:14 PM 62.5°F16.9°C 42.0°F5.6°C 47% 4.0 mph NE6.4 kmh NE 9.0 mph14.5 kmh 29.96 in1014.6 mb 0.00 in0.0 mm 0.00 in0.0 mm 0.00 in0.0 mm
12:12 PM 62.5°F16.9°C 41.5°F5.3°C 46% 3.0 mph NW4.8 kmh NW 9.0 mph14.5 kmh 29.96 in1014.6 mb 0.00 in0.0 mm 0.00 in0.0 mm 0.00 in0.0 mm
12:09 PM 62.3°F16.8°C 41.8°F5.4°C 47% 1.0 mph N1.6 kmh N 9.0 mph14.5 kmh 29.96 in1014.6 mb 0.00 in0.0 mm 0.00 in0.0 mm 0.00 in0.0 mm
12:08 PM 62.2°F16.8°C 41.7°F5.4°C 47% 4.0 mph NNW6.4 kmh NNW 9.0 mph14.5 kmh 29.96 in1014.6 mb 0.00 in0.0 mm 0.00 in0.0 mm 0.00 in0.0 mm
12:06 PM 62.1°F16.7°C 41.7°F5.4°C 47% 2.0 mph NW3.2 kmh NW 9.0 mph14.5 kmh 29.96 in1014.6 mb 0.00 in0.0 mm 0.00 in0.0 mm 0.00 in0.0 mm
12:03 PM 62.0°F16.7°C 41.6°F5.3°C 47% 8.0 mph NW12.9 kmh NW 9.0 mph14.5 kmh 29.97 in1014.9 mb 0.00 in0.0 mm 0.00 in0.0 mm 0.00 in0.0 mm
12:01 PM 61.9°F16.6°C 41.5°F5.3°C 47% 6.0 mph NW9.7 kmh NW 14.0 mph22.5 kmh 29.97 in1014.9 mb 0.00 in0.0 mm 0.00 in0.0 mm 0.00 in0.0 mm
12:00 PM 61.7°F16.5°C 41.8°F5.4°C 48% 2.0 mph NW3.2 kmh NW 14.0 mph22.5 kmh 29.98 in1015.2 mb 0.00 in0.0 mm 0.00 in0.0 mm 0.00 in0.0 mm
11:58 AM 61.5°F16.4°C 41.7°F5.4°C 48% 4.0 mph NNW6.4 kmh NNW 14.0 mph22.5 kmh 29.98 in1015.2 mb 0.00 in0.0 mm 0.00 in0.0 mm 0.00 in0.0 mm
11:56 AM 61.4°F16.3°C 41.6°F5.3°C 48% 6.0 mph NW9.7 kmh NW 14.0 mph22.5 kmh 29.98 in1015.2 mb 0.00 in0.0 mm 0.00 in0.0 mm 0.00 in0.0 mm
11:54 AM 61.4°F16.3°C 41.0°F5.0°C 47% 5.0 mph NNW8.0 kmh NNW 14.0 mph22.5 kmh 29.98 in1015.2 mb 0.00 in0.0 mm 0.00 in0.0 mm 0.00 in0.0 mm
11:52 AM 61.4°F16.3°C 41.6°F5.3°C 48% 9.0 mph WNW14.5 kmh WNW 14.0 mph22.5 kmh 29.98 in1015.2 mb 0.00 in0.0 mm 0.00 in0.0 mm 0.00 in0.0 mm
11:50 AM 61.3°F16.3°C 41.5°F5.3°C 48% 8.0 mph WNW12.9 kmh WNW 11.0 mph17.7 kmh 29.98 in1015.2 mb 0.00 in0.0 mm 0.00 in0.0 mm 0.00 in0.0 mm
11:48 AM 61.2°F16.2°C 41.4°F5.2°C 48% 4.0 mph N6.4 kmh N 8.0 mph12.9 kmh 29.98 in1015.2 mb 0.00 in0.0 mm 0.00 in0.0 mm 0.00 in0.0 mm
11:46 AM 61.2°F16.2°C 41.4°F5.2°C 48% 6.0 mph W9.7 kmh W 8.0 mph12.9 kmh 29.98 in1015.2 mb 0.00 in0.0 mm 0.00 in0.0 mm 0.00 in0.0 mm
11:44 AM 61.0°F16.1°C 41.7°F5.4°C 49% 2.0 mph WNW3.2 kmh WNW 8.0 mph12.9 kmh 29.98 in1015.2 mb 0.00 in0.0 mm 0.00 in0.0 mm 0.00 in0.0 mm
11:42 AM 60.8°F16.0°C 41.0°F5.0°C 48% Calm Calm 8.0 mph12.9 kmh 29.98 in1015.2 mb 0.00 in0.0 mm 0.00 in0.0 mm 0.00 in0.0 mm
11:40 AM 60.7°F15.9°C 41.5°F5.3°C 49% 6.0 mph W9.7 kmh W 8.0 mph12.9 kmh 29.98 in1015.2 mb 0.00 in0.0 mm 0.00 in0.0 mm 0.00 in0.0 mm
11:38 AM 60.5°F15.8°C 41.3°F5.2°C 49% 1.0 mph W1.6 kmh W 8.0 mph12.9 kmh 29.98 in1015.2 mb 0.00 in0.0 mm 0.00 in0.0 mm 0.00 in0.0 mm
11:36 AM 60.4°F15.8°C 41.2°F5.1°C 49% 4.0 mph W6.4 kmh W 8.0 mph12.9 kmh 29.98 in1015.2 mb 0.00 in0.0 mm 0.00 in0.0 mm 0.00 in0.0 mm
11:34 AM 60.4°F15.8°C 41.2°F5.1°C 49% 5.0 mph NW8.0 kmh NW 8.0 mph12.9 kmh 29.98 in1015.2 mb 0.00 in0.0 mm 0.00 in0.0 mm 0.00 in0.0 mm
11:32 AM 60.2°F15.7°C 41.0°F5.0°C 49% 3.0 mph WNW4.8 kmh WNW 10.0 mph16.1 kmh 29.99 in1015.6 mb 0.00 in0.0 mm 0.00 in0.0 mm 0.00 in0.0 mm
11:30 AM 60.2°F15.7°C 41.5°F5.3°C 50% 7.0 mph W11.3 kmh W 10.0 mph16.1 kmh 29.98 in1015.2 mb 0.00 in0.0 mm 0.00 in0.0 mm 0.00 in0.0 mm
11:28 AM 60.1°F15.6°C 40.9°F4.9°C 49% 8.0 mph NW12.9 kmh NW 10.0 mph16.1 kmh 29.98 in1015.2 mb 0.00 in0.0 mm 0.00 in0.0 mm 0.00 in0.0 mm
11:26 AM 60.1°F15.6°C 40.9°F4.9°C 49% 9.0 mph WNW14.5 kmh WNW 10.0 mph16.1 kmh 29.98 in1015.2 mb 0.00 in0.0 mm 0.00 in0.0 mm 0.00 in0.0 mm
11:23 AM 60.0°F15.6°C 41.3°F5.2°C 50% 3.0 mph NW4.8 kmh NW 10.0 mph16.1 kmh 29.99 in1015.6 mb 0.00 in0.0 mm 0.00 in0.0 mm 0.00 in0.0 mm
11:21 AM 59.9°F15.5°C 41.2°F5.1°C 50% 6.0 mph WNW9.7 kmh WNW 10.0 mph16.1 kmh 29.99 in1015.6 mb 0.00 in0.0 mm 0.00 in0.0 mm 0.00 in0.0 mm
11:20 AM 59.9°F15.5°C 41.2°F5.1°C 50% 3.0 mph WSW4.8 kmh WSW 10.0 mph16.1 kmh 29.99 in1015.6 mb 0.00 in0.0 mm 0.00 in0.0 mm 0.00 in0.0 mm
11:18 AM 59.7°F15.4°C 41.1°F5.1°C 50% 4.0 mph W6.4 kmh W 10.0 mph16.1 kmh 29.99 in1015.6 mb 0.00 in0.0 mm 0.00 in0.0 mm 0.00 in0.0 mm
11:16 AM 59.5°F15.3°C 40.9°F4.9°C 50% 2.0 mph WSW3.2 kmh WSW 10.0 mph16.1 kmh 29.99 in1015.6 mb 0.00 in0.0 mm 0.00 in0.0 mm 0.00 in0.0 mm
11:13 AM 59.4°F15.2°C 41.3°F5.2°C 51% 4.0 mph W6.4 kmh W 10.0 mph16.1 kmh 29.99 in1015.6 mb 0.00 in0.0 mm 0.00 in0.0 mm 0.00 in0.0 mm
11:12 AM 59.3°F15.2°C 40.7°F4.8°C 50% 3.0 mph W4.8 kmh W 8.0 mph12.9 kmh 29.99 in1015.6 mb 0.00 in0.0 mm 0.00 in0.0 mm 0.00 in0.0 mm
11:10 AM 59.2°F15.1°C 41.1°F5.1°C 51% 6.0 mph W9.7 kmh W 8.0 mph12.9 kmh 29.99 in1015.6 mb 0.00 in0.0 mm 0.00 in0.0 mm 0.00 in0.0 mm
11:08 AM 59.1°F15.1°C 41.0°F5.0°C 51% 4.0 mph SW6.4 kmh SW 7.0 mph11.3 kmh 29.99 in1015.6 mb 0.00 in0.0 mm 0.00 in0.0 mm 0.00 in0.0 mm
11:06 AM 58.9°F14.9°C 40.8°F4.9°C 51% 6.0 mph WNW9.7 kmh WNW 6.0 mph9.7 kmh 29.99 in1015.6 mb 0.00 in0.0 mm 0.00 in0.0 mm 0.00 in0.0 mm
11:04 AM 58.7°F14.8°C 41.1°F5.1°C 52% 4.0 mph WSW6.4 kmh WSW 5.0 mph8.0 kmh 29.99 in1015.6 mb 0.00 in0.0 mm 0.00 in0.0 mm 0.00 in0.0 mm
11:02 AM 58.6°F14.8°C 40.6°F4.8°C 51% 4.0 mph WSW6.4 kmh WSW 5.0 mph8.0 kmh 29.99 in1015.6 mb 0.00 in0.0 mm 0.00 in0.0 mm 0.00 in0.0 mm
11:00 AM 58.5°F14.7°C 40.5°F4.7°C 51% 4.0 mph SW6.4 kmh SW 11.0 mph17.7 kmh 29.98 in1015.2 mb 0.00 in0.0 mm 0.00 in0.0 mm 0.00 in0.0 mm
10:58 AM 58.3°F14.6°C 40.8°F4.9°C 52% 7.0 mph SW11.3 kmh SW 11.0 mph17.7 kmh 29.99 in1015.6 mb 0.00 in0.0 mm 0.00 in0.0 mm 0.00 in0.0 mm
10:56 AM 58.2°F14.6°C 40.7°F4.8°C 52% 4.0 mph SW6.4 kmh SW 11.0 mph17.7 kmh 29.99 in1015.6 mb 0.00 in0.0 mm 0.00 in0.0 mm 0.00 in0.0 mm
10:54 AM 58.1°F14.5°C 40.6°F4.8°C 52% 2.0 mph SW3.2 kmh SW 11.0 mph17.7 kmh 29.99 in1015.6 mb 0.00 in0.0 mm 0.00 in0.0 mm 0.00 in0.0 mm
10:52 AM 58.1°F14.5°C 40.6°F4.8°C 52% 7.0 mph SW11.3 kmh SW 11.0 mph17.7 kmh 29.99 in1015.6 mb 0.00 in0.0 mm 0.00 in0.0 mm 0.00 in0.0 mm
10:50 AM 58.0°F14.4°C 40.5°F4.7°C 52% 11.0 mph WSW17.7 kmh WSW 11.0 mph17.7 kmh 29.99 in1015.6 mb 0.00 in0.0 mm 0.00 in0.0 mm 0.00 in0.0 mm
10:48 AM 58.0°F14.4°C 40.5°F4.7°C 52% 5.0 mph SW8.0 kmh SW 9.0 mph14.5 kmh 29.99 in1015.6 mb 0.00 in0.0 mm 0.00 in0.0 mm 0.00 in0.0 mm
10:46 AM 58.1°F14.5°C 40.6°F4.8°C 52% 4.0 mph SSW6.4 kmh SSW 9.0 mph14.5 kmh 29.99 in1015.6 mb 0.00 in0.0 mm 0.00 in0.0 mm 0.00 in0.0 mm
10:44 AM 58.1°F14.5°C 41.1°F5.1°C 53% 5.0 mph SW8.0 kmh SW 9.0 mph14.5 kmh 29.99 in1015.6 mb 0.00 in0.0 mm 0.00 in0.0 mm 0.00 in0.0 mm
10:42 AM 57.7°F14.3°C 41.2°F5.1°C 54% 6.0 mph SSW9.7 kmh SSW 9.0 mph14.5 kmh 29.99 in1015.6 mb 0.00 in0.0 mm 0.00 in0.0 mm 0.00 in0.0 mm
10:40 AM 57.5°F14.2°C 41.5°F5.3°C 55% 2.0 mph SW3.2 kmh SW 9.0 mph14.5 kmh 30.00 in1015.9 mb 0.00 in0.0 mm 0.00 in0.0 mm 0.00 in0.0 mm
10:38 AM 57.2°F14.0°C 41.2°F5.1°C 55% 3.0 mph SW4.8 kmh SW 9.0 mph14.5 kmh 30.00 in1015.9 mb 0.00 in0.0 mm 0.00 in0.0 mm 0.00 in0.0 mm
10:36 AM 56.9°F13.8°C 40.9°F4.9°C 55% 2.0 mph SW3.2 kmh SW 9.0 mph14.5 kmh 30.00 in1015.9 mb 0.00 in0.0 mm 0.00 in0.0 mm 0.00 in0.0 mm
10:34 AM 56.6°F13.7°C 41.1°F5.1°C 56% 2.0 mph SSW3.2 kmh SSW 5.0 mph8.0 kmh 30.00 in1015.9 mb 0.00 in0.0 mm 0.00 in0.0 mm 0.00 in0.0 mm
10:32 AM 56.3°F13.5°C 40.8°F4.9°C 56% 4.0 mph SSW6.4 kmh SSW 5.0 mph8.0 kmh 30.00 in1015.9 mb 0.00 in0.0 mm 0.00 in0.0 mm 0.00 in0.0 mm
10:30 AM 56.0°F13.3°C 40.5°F4.7°C 56% 3.0 mph WSW4.8 kmh WSW 8.0 mph12.9 kmh 30.00 in1015.9 mb 0.00 in0.0 mm 0.00 in0.0 mm 0.00 in0.0 mm
10:28 AM 55.8°F13.2°C 40.4°F4.7°C 56% 3.0 mph SW4.8 kmh SW 8.0 mph12.9 kmh 30.00 in1015.9 mb 0.00 in0.0 mm 0.00 in0.0 mm 0.00 in0.0 mm
10:26 AM 55.5°F13.1°C 40.5°F4.7°C 57% 6.0 mph SW9.7 kmh SW 8.0 mph12.9 kmh 30.00 in1015.9 mb 0.00 in0.0 mm 0.00 in0.0 mm 0.00 in0.0 mm
10:23 AM 55.3°F12.9°C 40.8°F4.9°C 58% 4.0 mph SW6.4 kmh SW 8.0 mph12.9 kmh 30.00 in1015.9 mb 0.00 in0.0 mm 0.00 in0.0 mm 0.00 in0.0 mm
10:21 AM 55.1°F12.8°C 40.2°F4.6°C 57% 1.0 mph SW1.6 kmh SW 8.0 mph12.9 kmh 30.00 in1015.9 mb 0.00 in0.0 mm 0.00 in0.0 mm 0.00 in0.0 mm
10:19 AM 55.0°F12.8°C 40.5°F4.7°C 58% 5.0 mph SW8.0 kmh SW 8.0 mph12.9 kmh 30.00 in1015.9 mb 0.00 in0.0 mm 0.00 in0.0 mm 0.00 in0.0 mm
10:18 AM 54.8°F12.7°C 40.3°F4.6°C 58% 3.0 mph SW4.8 kmh SW 8.0 mph12.9 kmh 30.00 in1015.9 mb 0.00 in0.0 mm 0.00 in0.0 mm 0.00 in0.0 mm
10:16 AM 54.6°F12.6°C 40.1°F4.5°C 58% 3.0 mph SW4.8 kmh SW 8.0 mph12.9 kmh 30.00 in1015.9 mb 0.00 in0.0 mm 0.00 in0.0 mm 0.00 in0.0 mm
10:14 AM 54.4°F12.4°C 40.4°F4.7°C 59% 6.0 mph SSW9.7 kmh SSW 8.0 mph12.9 kmh 30.01 in1016.3 mb 0.00 in0.0 mm 0.00 in0.0 mm 0.00 in0.0 mm
10:12 AM 54.2°F12.3°C 40.2°F4.6°C 59% 7.0 mph SW11.3 kmh SW 8.0 mph12.9 kmh 30.01 in1016.3 mb 0.00 in0.0 mm 0.00 in0.0 mm 0.00 in0.0 mm
10:10 AM 54.2°F12.3°C 40.2°F4.6°C 59% 7.0 mph WSW11.3 kmh WSW 8.0 mph12.9 kmh 30.01 in1016.3 mb 0.00 in0.0 mm 0.00 in0.0 mm 0.00 in0.0 mm
10:08 AM 54.1°F12.3°C 40.1°F4.5°C 59% 5.0 mph SW8.0 kmh SW 8.0 mph12.9 kmh 30.01 in1016.3 mb 0.00 in0.0 mm 0.00 in0.0 mm 0.00 in0.0 mm
10:06 AM 53.9°F12.2°C 40.4°F4.7°C 60% 8.0 mph WSW12.9 kmh WSW 8.0 mph12.9 kmh 30.01 in1016.3 mb 0.00 in0.0 mm 0.00 in0.0 mm 0.00 in0.0 mm
10:04 AM 53.7°F12.1°C 40.2°F4.6°C 60% 5.0 mph SSW8.0 kmh SSW 6.0 mph9.7 kmh 30.01 in1016.3 mb 0.00 in0.0 mm 0.00 in0.0 mm 0.00 in0.0 mm
10:02 AM 53.6°F12.0°C 40.1°F4.5°C 60% 6.0 mph SW9.7 kmh SW 10.0 mph16.1 kmh 30.01 in1016.3 mb 0.00 in0.0 mm 0.00 in0.0 mm 0.00 in0.0 mm
10:00 AM 53.5°F11.9°C 40.0°F4.4°C 60% 6.0 mph SW9.7 kmh SW 10.0 mph16.1 kmh 30.01 in1016.3 mb 0.00 in0.0 mm 0.00 in0.0 mm 0.00 in0.0 mm
09:58 AM 53.3°F11.8°C 39.8°F4.3°C 60% 7.0 mph SW11.3 kmh SW 10.0 mph16.1 kmh 30.01 in1016.3 mb 0.00 in0.0 mm 0.00 in0.0 mm 0.00 in0.0 mm
09:56 AM 53.2°F11.8°C 40.1°F4.5°C 61% 7.0 mph S11.3 kmh S 9.0 mph14.5 kmh 30.01 in1016.3 mb 0.00 in0.0 mm 0.00 in0.0 mm 0.00 in0.0 mm
09:54 AM 53.1°F11.7°C 40.0°F4.4°C 61% 8.0 mph SW12.9 kmh SW 9.0 mph14.5 kmh 30.00 in1015.9 mb 0.00 in0.0 mm 0.00 in0.0 mm 0.00 in0.0 mm
09:52 AM 52.9°F11.6°C 39.8°F4.3°C 61% 3.0 mph S4.8 kmh S 9.0 mph14.5 kmh 30.01 in1016.3 mb 0.00 in0.0 mm 0.00 in0.0 mm 0.00 in0.0 mm
09:50 AM 52.7°F11.5°C 40.1°F4.5°C 62% 2.0 mph SSW3.2 kmh SSW 9.0 mph14.5 kmh 30.01 in1016.3 mb 0.00 in0.0 mm 0.00 in0.0 mm 0.00 in0.0 mm
09:48 AM 52.5°F11.4°C 39.9°F4.4°C 62% 4.0 mph SW6.4 kmh SW 9.0 mph14.5 kmh 30.01 in1016.3 mb 0.00 in0.0 mm 0.00 in0.0 mm 0.00 in0.0 mm
09:46 AM 52.3°F11.3°C 40.1°F4.5°C 63% 3.0 mph W4.8 kmh W 9.0 mph14.5 kmh 30.01 in1016.3 mb 0.00 in0.0 mm 0.00 in0.0 mm 0.00 in0.0 mm
09:44 AM 52.0°F11.1°C 39.8°F4.3°C 63% 4.0 mph S6.4 kmh S 9.0 mph14.5 kmh 30.01 in1016.3 mb 0.00 in0.0 mm 0.00 in0.0 mm 0.00 in0.0 mm
09:42 AM 51.6°F10.9°C 39.8°F4.3°C 64% 4.0 mph SSW6.4 kmh SSW 9.0 mph14.5 kmh 30.01 in1016.3 mb 0.00 in0.0 mm 0.00 in0.0 mm 0.00 in0.0 mm
09:40 AM 51.4°F10.8°C 39.7°F4.3°C 64% 4.0 mph WNW6.4 kmh WNW 7.0 mph11.3 kmh 30.01 in1016.3 mb 0.00 in0.0 mm 0.00 in0.0 mm 0.00 in0.0 mm
09:38 AM 51.1°F10.6°C 39.4°F4.1°C 64% 3.0 mph SW4.8 kmh SW 7.0 mph11.3 kmh 30.01 in1016.3 mb 0.00 in0.0 mm 0.00 in0.0 mm 0.00 in0.0 mm
09:36 AM 51.0°F10.6°C 39.7°F4.3°C 65% 3.0 mph SW4.8 kmh SW 7.0 mph11.3 kmh 30.01 in1016.3 mb 0.00 in0.0 mm 0.00 in0.0 mm 0.00 in0.0 mm
09:34 AM 50.8°F10.4°C 39.1°F3.9°C 64% 3.0 mph SW4.8 kmh SW 7.0 mph11.3 kmh 30.01 in1016.3 mb 0.00 in0.0 mm 0.00 in0.0 mm 0.00 in0.0 mm
09:32 AM 50.6°F10.3°C 39.3°F4.1°C 65% 7.0 mph SSW11.3 kmh SSW 7.0 mph11.3 kmh 30.01 in1016.3 mb 0.00 in0.0 mm 0.00 in0.0 mm 0.00 in0.0 mm
09:30 AM 50.4°F10.2°C 39.1°F3.9°C 65% 7.0 mph SW11.3 kmh SW 8.0 mph12.9 kmh 30.01 in1016.3 mb 0.00 in0.0 mm 0.00 in0.0 mm 0.00 in0.0 mm
09:28 AM 50.2°F10.1°C 38.9°F3.8°C 65% 4.0 mph SSW6.4 kmh SSW 8.0 mph12.9 kmh 30.01 in1016.3 mb 0.00 in0.0 mm 0.00 in0.0 mm 0.00 in0.0 mm
09:26 AM 50.0°F10.0°C 39.1°F3.9°C 66% 6.0 mph S9.7 kmh S 8.0 mph12.9 kmh 30.01 in1016.3 mb 0.00 in0.0 mm 0.00 in0.0 mm 0.00 in0.0 mm
09:23 AM 49.8°F9.9°C 38.9°F3.8°C 66% 5.0 mph SE8.0 kmh SE 8.0 mph12.9 kmh 30.01 in1016.3 mb 0.00 in0.0 mm 0.00 in0.0 mm 0.00 in0.0 mm
09:22 AM 49.6°F9.8°C 38.7°F3.7°C 66% 3.0 mph SW4.8 kmh SW 8.0 mph12.9 kmh 30.01 in1016.3 mb 0.00 in0.0 mm 0.00 in0.0 mm 0.00 in0.0 mm
09:20 AM 49.4°F9.7°C 38.9°F3.8°C 67% 1.0 mph S1.6 kmh S 8.0 mph12.9 kmh 30.01 in1016.3 mb 0.00 in0.0 mm 0.00 in0.0 mm 0.00 in0.0 mm
09:17 AM 49.1°F9.5°C 38.6°F3.7°C 67% 2.0 mph SW3.2 kmh SW 8.0 mph12.9 kmh 30.01 in1016.3 mb 0.00 in0.0 mm 0.00 in0.0 mm 0.00 in0.0 mm
09:16 AM 49.0°F9.4°C 38.5°F3.6°C 67% 6.0 mph S9.7 kmh S 8.0 mph12.9 kmh 30.01 in1016.3 mb 0.00 in0.0 mm 0.00 in0.0 mm 0.00 in0.0 mm
09:14 AM 48.9°F9.4°C 38.4°F3.6°C 67% 5.0 mph SSW8.0 kmh SSW 8.0 mph12.9 kmh 30.01 in1016.3 mb 0.00 in0.0 mm 0.00 in0.0 mm 0.00 in0.0 mm
09:12 AM 48.8°F9.3°C 38.3°F3.5°C 67% 2.0 mph SW3.2 kmh SW 8.0 mph12.9 kmh 30.01 in1016.3 mb 0.00 in0.0 mm 0.00 in0.0 mm 0.00 in0.0 mm
09:10 AM 48.7°F9.3°C 38.3°F3.5°C 67% 2.0 mph SW3.2 kmh SW 8.0 mph12.9 kmh 30.01 in1016.3 mb 0.00 in0.0 mm 0.00 in0.0 mm 0.00 in0.0 mm
09:08 AM 48.6°F9.2°C 38.2°F3.4°C 67% 5.0 mph SSW8.0 kmh SSW 8.0 mph12.9 kmh 30.01 in1016.3 mb 0.00 in0.0 mm 0.00 in0.0 mm 0.00 in0.0 mm
09:06 AM 48.6°F9.2°C 38.5°F3.6°C 68% 6.0 mph SW9.7 kmh SW 6.0 mph9.7 kmh 30.01 in1016.3 mb 0.00 in0.0 mm 0.00 in0.0 mm 0.00 in0.0 mm
09:04 AM 48.4°F9.1°C 38.3°F3.5°C 68% 4.0 mph SSW6.4 kmh SSW 6.0 mph9.7 kmh 30.01 in1016.3 mb 0.00 in0.0 mm 0.00 in0.0 mm 0.00 in0.0 mm
09:02 AM 48.2°F9.0°C 38.2°F3.4°C 68% 2.0 mph SSE3.2 kmh SSE 2.0 mph3.2 kmh 30.01 in1016.3 mb 0.00 in0.0 mm 0.00 in0.0 mm 0.00 in0.0 mm
09:00 AM 48.2°F9.0°C 38.2°F3.4°C 68% 6.0 mph S9.7 kmh S 9.0 mph14.5 kmh 30.01 in1016.3 mb 0.00 in0.0 mm 0.00 in0.0 mm 0.00 in0.0 mm
08:58 AM 48.1°F8.9°C 38.1°F3.4°C 68% 6.0 mph SSW9.7 kmh SSW 9.0 mph14.5 kmh 30.00 in1015.9 mb 0.00 in0.0 mm 0.00 in0.0 mm 0.00 in0.0 mm
08:56 AM 47.9°F8.8°C 38.2°F3.4°C 69% 4.0 mph SSW6.4 kmh SSW 9.0 mph14.5 kmh 30.01 in1016.3 mb 0.00 in0.0 mm 0.00 in0.0 mm 0.00 in0.0 mm
08:54 AM 47.8°F8.8°C 38.1°F3.4°C 69% 5.0 mph S8.0 kmh S 9.0 mph14.5 kmh 30.00 in1015.9 mb 0.00 in0.0 mm 0.00 in0.0 mm 0.00 in0.0 mm
08:52 AM 47.6°F8.7°C 38.0°F3.3°C 69% 3.0 mph SW4.8 kmh SW 9.0 mph14.5 kmh 30.00 in1015.9 mb 0.00 in0.0 mm 0.00 in0.0 mm 0.00 in0.0 mm
08:50 AM 47.5°F8.6°C 37.9°F3.3°C 69% 7.0 mph S11.3 kmh S 9.0 mph14.5 kmh 30.00 in1015.9 mb 0.00 in0.0 mm 0.00 in0.0 mm 0.00 in0.0 mm
08:48 AM 47.3°F8.5°C 37.7°F3.2°C 69% 4.0 mph SW6.4 kmh SW 9.0 mph14.5 kmh 30.00 in1015.9 mb 0.00 in0.0 mm 0.00 in0.0 mm 0.00 in0.0 mm
08:46 AM 47.3°F8.5°C 37.7°F3.2°C 69% 5.0 mph SSE8.0 kmh SSE 9.0 mph14.5 kmh 30.00 in1015.9 mb 0.00 in0.0 mm 0.00 in0.0 mm 0.00 in0.0 mm
08:43 AM 47.2°F8.4°C 37.6°F3.1°C 69% 8.0 mph S12.9 kmh S 9.0 mph14.5 kmh 30.00 in1015.9 mb 0.00 in0.0 mm 0.00 in0.0 mm 0.00 in0.0 mm
08:41 AM 47.1°F8.4°C 37.8°F3.2°C 70% 5.0 mph SSE8.0 kmh SSE 9.0 mph14.5 kmh 30.00 in1015.9 mb 0.00 in0.0 mm 0.00 in0.0 mm 0.00 in0.0 mm
08:40 AM 46.9°F8.3°C 37.6°F3.1°C 70% 6.0 mph SSE9.7 kmh SSE 9.0 mph14.5 kmh 30.00 in1015.9 mb 0.00 in0.0 mm 0.00 in0.0 mm 0.00 in0.0 mm
08:38 AM 46.7°F8.2°C 37.5°F3.1°C 70% 5.0 mph SSE8.0 kmh SSE 9.0 mph14.5 kmh 30.00 in1015.9 mb 0.00 in0.0 mm 0.00 in0.0 mm 0.00 in0.0 mm
08:36 AM 46.6°F8.1°C 37.4°F3.0°C 70% 6.0 mph SSW9.7 kmh SSW 9.0 mph14.5 kmh 30.00 in1015.9 mb 0.00 in0.0 mm 0.00 in0.0 mm 0.00 in0.0 mm
08:34 AM 46.4°F8.0°C 37.2°F2.9°C 70% 5.0 mph SW8.0 kmh SW 6.0 mph9.7 kmh 30.00 in1015.9 mb 0.00 in0.0 mm 0.00 in0.0 mm 0.00 in0.0 mm
08:32 AM 46.2°F7.9°C 37.3°F2.9°C 71% 4.0 mph S6.4 kmh S 6.0 mph9.7 kmh 30.00 in1015.9 mb 0.00 in0.0 mm 0.00 in0.0 mm 0.00 in0.0 mm
08:29 AM 46.0°F7.8°C 37.1°F2.8°C 71% 5.0 mph SSE8.0 kmh SSE 6.0 mph9.7 kmh 30.00 in1015.9 mb 0.00 in0.0 mm 0.00 in0.0 mm 0.00 in0.0 mm
08:28 AM 45.9°F7.7°C 37.0°F2.8°C 71% 3.0 mph SSE4.8 kmh SSE 6.0 mph9.7 kmh 30.00 in1015.9 mb 0.00 in0.0 mm 0.00 in0.0 mm 0.00 in0.0 mm
08:26 AM 45.8°F7.7°C 37.0°F2.8°C 71% 3.0 mph S4.8 kmh S 6.0 mph9.7 kmh 30.00 in1015.9 mb 0.00 in0.0 mm 0.00 in0.0 mm 0.00 in0.0 mm
08:24 AM 45.6°F7.6°C 37.1°F2.8°C 72% 3.0 mph S4.8 kmh S 6.0 mph9.7 kmh 30.00 in1015.9 mb 0.00 in0.0 mm 0.00 in0.0 mm 0.00 in0.0 mm
08:22 AM 45.4°F7.4°C 36.9°F2.7°C 72% 2.0 mph S3.2 kmh S 6.0 mph9.7 kmh 30.00 in1015.9 mb 0.00 in0.0 mm 0.00 in0.0 mm 0.00 in0.0 mm
08:20 AM 45.4°F7.4°C 36.9°F2.7°C 72% 5.0 mph SSW8.0 kmh SSW 6.0 mph9.7 kmh 30.01 in1016.3 mb 0.00 in0.0 mm 0.00 in0.0 mm 0.00 in0.0 mm
08:18 AM 45.2°F7.3°C 36.7°F2.6°C 72% 3.0 mph S4.8 kmh S 6.0 mph9.7 kmh 30.01 in1016.3 mb 0.00 in0.0 mm 0.00 in0.0 mm 0.00 in0.0 mm
08:14 AM 45.0°F7.2°C 36.5°F2.5°C 72% 4.0 mph SSE6.4 kmh SSE 6.0 mph9.7 kmh 30.01 in1016.3 mb 0.00 in0.0 mm 0.00 in0.0 mm 0.00 in0.0 mm
08:12 AM 44.9°F7.2°C 36.4°F2.4°C 72% 4.0 mph S6.4 kmh S 6.0 mph9.7 kmh 30.01 in1016.3 mb 0.00 in0.0 mm 0.00 in0.0 mm 0.00 in0.0 mm
08:09 AM 44.8°F7.1°C 36.3°F2.4°C 72% 3.0 mph S4.8 kmh S 6.0 mph9.7 kmh 30.00 in1015.9 mb 0.00 in0.0 mm 0.00 in0.0 mm 0.00 in0.0 mm
08:08 AM 44.8°F7.1°C 36.3°F2.4°C 72% 3.0 mph S4.8 kmh S 5.0 mph8.0 kmh 30.01 in1016.3 mb 0.00 in0.0 mm 0.00 in0.0 mm 0.00 in0.0 mm
08:05 AM 44.6°F7.0°C 36.2°F2.3°C 72% 3.0 mph S4.8 kmh S 4.0 mph6.4 kmh 30.01 in1016.3 mb 0.00 in0.0 mm 0.00 in0.0 mm 0.00 in0.0 mm
08:04 AM 44.6°F7.0°C 36.2°F2.3°C 72% 3.0 mph S4.8 kmh S 3.0 mph4.8 kmh 30.01 in1016.3 mb 0.00 in0.0 mm 0.00 in0.0 mm 0.00 in0.0 mm
08:02 AM 44.5°F6.9°C 36.1°F2.3°C 72% 3.0 mph S4.8 kmh S 6.0 mph9.7 kmh 30.00 in1015.9 mb 0.00 in0.0 mm 0.00 in0.0 mm 0.00 in0.0 mm
07:59 AM 44.3°F6.8°C 36.2°F2.3°C 73% 3.0 mph S4.8 kmh S 5.0 mph8.0 kmh 30.01 in1016.3 mb 0.00 in0.0 mm 0.00 in0.0 mm 0.00 in0.0 mm
07:58 AM 44.2°F6.8°C 36.1°F2.3°C 73% 2.0 mph SSE3.2 kmh SSE 5.0 mph8.0 kmh 30.01 in1016.3 mb 0.00 in0.0 mm 0.00 in0.0 mm 0.00 in0.0 mm
07:55 AM 44.2°F6.8°C 36.1°F2.3°C 73% 2.0 mph S3.2 kmh S 5.0 mph8.0 kmh 30.00 in1015.9 mb 0.00 in0.0 mm 0.00 in0.0 mm 0.00 in0.0 mm
07:53 AM 44.0°F6.7°C 35.9°F2.2°C 73% 2.0 mph SSE3.2 kmh SSE 5.0 mph8.0 kmh 30.00 in1015.9 mb 0.00 in0.0 mm 0.00 in0.0 mm 0.00 in0.0 mm
07:51 AM 43.9°F6.6°C 35.8°F2.1°C 73% 3.0 mph S4.8 kmh S 5.0 mph8.0 kmh 30.00 in1015.9 mb 0.00 in0.0 mm 0.00 in0.0 mm 0.00 in0.0 mm
07:49 AM 43.7°F6.5°C 36.0°F2.2°C 74% 5.0 mph S8.0 kmh S 5.0 mph8.0 kmh 30.00 in1015.9 mb 0.00 in0.0 mm 0.00 in0.0 mm 0.00 in0.0 mm
07:48 AM 43.5°F6.4°C 35.8°F2.1°C 74% 2.0 mph S3.2 kmh S 5.0 mph8.0 kmh 30.00 in1015.9 mb 0.00 in0.0 mm 0.00 in0.0 mm 0.00 in0.0 mm
07:45 AM 43.4°F6.3°C 35.7°F2.1°C 74% 4.0 mph S6.4 kmh S 5.0 mph8.0 kmh 30.00 in1015.9 mb 0.00 in0.0 mm 0.00 in0.0 mm 0.00 in0.0 mm
07:44 AM 43.2°F6.2°C 35.5°F1.9°C 74% 1.0 mph SE1.6 kmh SE 4.0 mph6.4 kmh 30.00 in1015.9 mb 0.00 in0.0 mm 0.00 in0.0 mm 0.00 in0.0 mm
07:42 AM 43.1°F6.2°C 35.4°F1.9°C 74% 2.0 mph SE3.2 kmh SE 4.0 mph6.4 kmh 30.00 in1015.9 mb 0.00 in0.0 mm 0.00 in0.0 mm 0.00 in0.0 mm
07:40 AM 43.0°F6.1°C 35.3°F1.8°C 74% 2.0 mph SE3.2 kmh SE 4.0 mph6.4 kmh 30.00 in1015.9 mb 0.00 in0.0 mm 0.00 in0.0 mm 0.00 in0.0 mm
07:38 AM 43.0°F6.1°C 35.3°F1.8°C 74% Calm Calm 4.0 mph6.4 kmh 30.00 in1015.9 mb 0.00 in0.0 mm 0.00 in0.0 mm 0.00 in0.0 mm
07:36 AM 42.9°F6.1°C 35.2°F1.8°C 74% 3.0 mph SE4.8 kmh SE 4.0 mph6.4 kmh 29.99 in1015.6 mb 0.00 in0.0 mm 0.00 in0.0 mm 0.00 in0.0 mm
07:34 AM 43.0°F6.1°C 35.3°F1.8°C 74% 1.0 mph S1.6 kmh S 4.0 mph6.4 kmh 29.99 in1015.6 mb 0.00 in0.0 mm 0.00 in0.0 mm 0.00 in0.0 mm
07:32 AM 42.9°F6.1°C 35.2°F1.8°C 74% 3.0 mph SSE4.8 kmh SSE 5.0 mph8.0 kmh 29.99 in1015.6 mb 0.00 in0.0 mm 0.00 in0.0 mm 0.00 in0.0 mm
07:30 AM 42.9°F6.1°C 35.2°F1.8°C 74% 2.0 mph SE3.2 kmh SE 5.0 mph8.0 kmh 29.99 in1015.6 mb 0.00 in0.0 mm 0.00 in0.0 mm 0.00 in0.0 mm
07:28 AM 42.8°F6.0°C 35.1°F1.7°C 74% 5.0 mph SSE8.0 kmh SSE 5.0 mph8.0 kmh 29.99 in1015.6 mb 0.00 in0.0 mm 0.00 in0.0 mm 0.00 in0.0 mm
07:26 AM 42.8°F6.0°C 35.1°F1.7°C 74% 3.0 mph SSE4.8 kmh SSE 5.0 mph8.0 kmh 30.00 in1015.9 mb 0.00 in0.0 mm 0.00 in0.0 mm 0.00 in0.0 mm
07:23 AM 42.8°F6.0°C 35.1°F1.7°C 74% 2.0 mph SE3.2 kmh SE 5.0 mph8.0 kmh 30.00 in1015.9 mb 0.00 in0.0 mm 0.00 in0.0 mm 0.00 in0.0 mm
07:21 AM 42.7°F5.9°C 35.0°F1.7°C 74% 3.0 mph SE4.8 kmh SE 5.0 mph8.0 kmh 30.00 in1015.9 mb 0.00 in0.0 mm 0.00 in0.0 mm 0.00 in0.0 mm
07:19 AM 42.8°F6.0°C 35.1°F1.7°C 74% 4.0 mph SSE6.4 kmh SSE 5.0 mph8.0 kmh 29.99 in1015.6 mb 0.00 in0.0 mm 0.00 in0.0 mm 0.00 in0.0 mm
07:18 AM 42.7°F5.9°C 35.0°F1.7°C 74% 2.0 mph SE3.2 kmh SE 5.0 mph8.0 kmh 30.00 in1015.9 mb 0.00 in0.0 mm 0.00 in0.0 mm 0.00 in0.0 mm
07:16 AM 42.7°F5.9°C 35.0°F1.7°C 74% 3.0 mph SE4.8 kmh SE 5.0 mph8.0 kmh 30.00 in1015.9 mb 0.00 in0.0 mm 0.00 in0.0 mm 0.00 in0.0 mm
07:13 AM 42.7°F5.9°C 35.0°F1.7°C 74% 5.0 mph SSE8.0 kmh SSE 5.0 mph8.0 kmh 30.00 in1015.9 mb 0.00 in0.0 mm 0.00 in0.0 mm 0.00 in0.0 mm
07:11 AM 42.7°F5.9°C 35.0°F1.7°C 74% 2.0 mph SSE3.2 kmh SSE 4.0 mph6.4 kmh 30.00 in1015.9 mb 0.00 in0.0 mm 0.00 in0.0 mm 0.00 in0.0 mm
07:10 AM 42.7°F5.9°C 35.0°F1.7°C 74% 1.0 mph SSE1.6 kmh SSE 4.0 mph6.4 kmh 30.00 in1015.9 mb 0.00 in0.0 mm 0.00 in0.0 mm 0.00 in0.0 mm
07:08 AM 42.7°F5.9°C 35.0°F1.7°C 74% 3.0 mph SSE4.8 kmh SSE 3.0 mph4.8 kmh 30.00 in1015.9 mb 0.00 in0.0 mm 0.00 in0.0 mm 0.00 in0.0 mm
07:06 AM 42.7°F5.9°C 35.0°F1.7°C 74% 1.0 mph SSE1.6 kmh SSE 3.0 mph4.8 kmh 30.00 in1015.9 mb 0.00 in0.0 mm 0.00 in0.0 mm 0.00 in0.0 mm
07:04 AM 42.8°F6.0°C 35.1°F1.7°C 74% 3.0 mph SSE4.8 kmh SSE 3.0 mph4.8 kmh 29.99 in1015.6 mb 0.00 in0.0 mm 0.00 in0.0 mm 0.00 in0.0 mm
07:02 AM 42.7°F5.9°C 35.0°F1.7°C 74% 3.0 mph SSE4.8 kmh SSE 5.0 mph8.0 kmh 29.99 in1015.6 mb 0.00 in0.0 mm 0.00 in0.0 mm 0.00 in0.0 mm
06:48 AM 42.8°F6.0°C 35.1°F1.7°C 74% 2.0 mph SE3.2 kmh SE 4.0 mph6.4 kmh 29.99 in1015.6 mb 0.00 in0.0 mm 0.00 in0.0 mm 0.00 in0.0 mm
06:44 AM 42.8°F6.0°C 34.8°F1.6°C 73% 2.0 mph SSE3.2 kmh SSE 4.0 mph6.4 kmh 29.99 in1015.6 mb 0.00 in0.0 mm 0.00 in0.0 mm 0.00 in0.0 mm
06:41 AM 42.9°F6.1°C 34.9°F1.6°C 73% 2.0 mph SE3.2 kmh SE 4.0 mph6.4 kmh 29.99 in1015.6 mb 0.00 in0.0 mm 0.00 in0.0 mm 0.00 in0.0 mm
06:40 AM 42.9°F6.1°C 34.9°F1.6°C 73% 2.0 mph SE3.2 kmh SE 4.0 mph6.4 kmh 29.99 in1015.6 mb 0.00 in0.0 mm 0.00 in0.0 mm 0.00 in0.0 mm
06:38 AM 42.9°F6.1°C 34.9°F1.6°C 73% 1.0 mph SE1.6 kmh SE 4.0 mph6.4 kmh 29.99 in1015.6 mb 0.00 in0.0 mm 0.00 in0.0 mm 0.00 in0.0 mm
06:36 AM 43.0°F6.1°C 35.0°F1.7°C 73% 3.0 mph SE4.8 kmh SE 4.0 mph6.4 kmh 29.99 in1015.6 mb 0.00 in0.0 mm 0.00 in0.0 mm 0.00 in0.0 mm
06:34 AM 42.9°F6.1°C 34.9°F1.6°C 73% 2.0 mph SE3.2 kmh SE 4.0 mph6.4 kmh 29.99 in1015.6 mb 0.00 in0.0 mm 0.00 in0.0 mm 0.00 in0.0 mm
06:32 AM 42.9°F6.1°C 34.9°F1.6°C 73% 1.0 mph SE1.6 kmh SE 5.0 mph8.0 kmh 29.99 in1015.6 mb 0.00 in0.0 mm 0.00 in0.0 mm 0.00 in0.0 mm
06:30 AM 43.0°F6.1°C 35.0°F1.7°C 73% 1.0 mph SE1.6 kmh SE 5.0 mph8.0 kmh 29.99 in1015.6 mb 0.00 in0.0 mm 0.00 in0.0 mm 0.00 in0.0 mm
06:28 AM 43.0°F6.1°C 35.0°F1.7°C 73% Calm Calm 5.0 mph8.0 kmh 29.99 in1015.6 mb 0.00 in0.0 mm 0.00 in0.0 mm 0.00 in0.0 mm
06:26 AM 43.1°F6.2°C 35.1°F1.7°C 73% 1.0 mph SE1.6 kmh SE 5.0 mph8.0 kmh 29.99 in1015.6 mb 0.00 in0.0 mm 0.00 in0.0 mm 0.00 in0.0 mm
06:24 AM 43.1°F6.2°C 35.1°F1.7°C 73% 3.0 mph SSE4.8 kmh SSE 5.0 mph8.0 kmh 29.99 in1015.6 mb 0.00 in0.0 mm 0.00 in0.0 mm 0.00 in0.0 mm
06:22 AM 43.1°F6.2°C 35.1°F1.7°C 73% 1.0 mph SSE1.6 kmh SSE 5.0 mph8.0 kmh 29.98 in1015.2 mb 0.00 in0.0 mm 0.00 in0.0 mm 0.00 in0.0 mm
06:20 AM 43.2°F6.2°C 35.1°F1.7°C 73% 1.0 mph SE1.6 kmh SE 5.0 mph8.0 kmh 29.99 in1015.6 mb 0.00 in0.0 mm 0.00 in0.0 mm 0.00 in0.0 mm
06:18 AM 43.2°F6.2°C 35.1°F1.7°C 73% 1.0 mph SSE1.6 kmh SSE 4.0 mph6.4 kmh 29.99 in1015.6 mb 0.00 in0.0 mm 0.00 in0.0 mm 0.00 in0.0 mm
06:02 AM 43.3°F6.3°C 34.9°F1.6°C 72% 2.0 mph SSE3.2 kmh SSE 5.0 mph8.0 kmh 29.98 in1015.2 mb 0.00 in0.0 mm 0.00 in0.0 mm 0.00 in0.0 mm
06:00 AM 43.2°F6.2°C 34.8°F1.6°C 72% 1.0 mph SE1.6 kmh SE 4.0 mph6.4 kmh 29.98 in1015.2 mb 0.00 in0.0 mm 0.00 in0.0 mm 0.00 in0.0 mm
05:58 AM 43.3°F6.3°C 34.9°F1.6°C 72% 2.0 mph SE3.2 kmh SE 4.0 mph6.4 kmh 29.98 in1015.2 mb 0.00 in0.0 mm 0.00 in0.0 mm 0.00 in0.0 mm
05:56 AM 43.3°F6.3°C 34.9°F1.6°C 72% 3.0 mph SE4.8 kmh SE 3.0 mph4.8 kmh 29.98 in1015.2 mb 0.00 in0.0 mm 0.00 in0.0 mm 0.00 in0.0 mm
05:54 AM 43.3°F6.3°C 34.9°F1.6°C 72% 1.0 mph SE1.6 kmh SE 3.0 mph4.8 kmh 29.98 in1015.2 mb 0.00 in0.0 mm 0.00 in0.0 mm 0.00 in0.0 mm
05:52 AM 43.3°F6.3°C 34.9°F1.6°C 72% Calm Calm 3.0 mph4.8 kmh 29.98 in1015.2 mb 0.00 in0.0 mm 0.00 in0.0 mm 0.00 in0.0 mm
05:50 AM 43.3°F6.3°C 34.9°F1.6°C 72% 3.0 mph SE4.8 kmh SE 3.0 mph4.8 kmh 29.98 in1015.2 mb 0.00 in0.0 mm 0.00 in0.0 mm 0.00 in0.0 mm
05:48 AM 43.3°F6.3°C 34.9°F1.6°C 72% 1.0 mph SE1.6 kmh SE 3.0 mph4.8 kmh 29.98 in1015.2 mb 0.00 in0.0 mm 0.00 in0.0 mm 0.00 in0.0 mm
05:46 AM 43.3°F6.3°C 34.9°F1.6°C 72% 1.0 mph SE1.6 kmh SE 3.0 mph4.8 kmh 29.98 in1015.2 mb 0.00 in0.0 mm 0.00 in0.0 mm 0.00 in0.0 mm
05:44 AM 43.4°F6.3°C 35.0°F1.7°C 72% 2.0 mph ESE3.2 kmh ESE 3.0 mph4.8 kmh 29.98 in1015.2 mb 0.00 in0.0 mm 0.00 in0.0 mm 0.00 in0.0 mm
05:42 AM 43.4°F6.3°C 35.0°F1.7°C 72% 1.0 mph SE1.6 kmh SE 3.0 mph4.8 kmh 29.98 in1015.2 mb 0.00 in0.0 mm 0.00 in0.0 mm 0.00 in0.0 mm
05:40 AM 43.4°F6.3°C 35.0°F1.7°C 72% 3.0 mph SE4.8 kmh SE 3.0 mph4.8 kmh 29.98 in1015.2 mb 0.00 in0.0 mm 0.00 in0.0 mm 0.00 in0.0 mm
05:38 AM 43.4°F6.3°C 35.0°F1.7°C 72% 1.0 mph SE1.6 kmh SE 3.0 mph4.8 kmh 29.98 in1015.2 mb 0.00 in0.0 mm 0.00 in0.0 mm 0.00 in0.0 mm
05:36 AM 43.5°F6.4°C 35.1°F1.7°C 72% 2.0 mph SE3.2 kmh SE 3.0 mph4.8 kmh 29.98 in1015.2 mb 0.00 in0.0 mm 0.00 in0.0 mm 0.00 in0.0 mm
05:33 AM 43.5°F6.4°C 35.1°F1.7°C 72% 2.0 mph SE3.2 kmh SE 3.0 mph4.8 kmh 29.98 in1015.2 mb 0.00 in0.0 mm 0.00 in0.0 mm 0.00 in0.0 mm
05:32 AM 43.5°F6.4°C 35.1°F1.7°C 72% 2.0 mph SE3.2 kmh SE 2.0 mph3.2 kmh 29.98 in1015.2 mb 0.00 in0.0 mm 0.00 in0.0 mm 0.00 in0.0 mm
05:30 AM 43.5°F6.4°C 35.1°F1.7°C 72% 1.0 mph SE1.6 kmh SE 4.0 mph6.4 kmh 29.98 in1015.2 mb 0.00 in0.0 mm 0.00 in0.0 mm 0.00 in0.0 mm
05:28 AM 43.4°F6.3°C 35.0°F1.7°C 72% 2.0 mph SE3.2 kmh SE 4.0 mph6.4 kmh 29.98 in1015.2 mb 0.00 in0.0 mm 0.00 in0.0 mm 0.00 in0.0 mm
05:26 AM 43.4°F6.3°C 35.0°F1.7°C 72% 3.0 mph SE4.8 kmh SE 4.0 mph6.4 kmh 29.98 in1015.2 mb 0.00 in0.0 mm 0.00 in0.0 mm 0.00 in0.0 mm
05:24 AM 43.4°F6.3°C 34.6°F1.4°C 71% 1.0 mph SE1.6 kmh SE 4.0 mph6.4 kmh 29.98 in1015.2 mb 0.00 in0.0 mm 0.00 in0.0 mm 0.00 in0.0 mm
05:22 AM 43.4°F6.3°C 34.6°F1.4°C 71% 1.0 mph SE1.6 kmh SE 4.0 mph6.4 kmh 29.98 in1015.2 mb 0.00 in0.0 mm 0.00 in0.0 mm 0.00 in0.0 mm
05:20 AM 43.5°F6.4°C 34.7°F1.5°C 71% 2.0 mph SE3.2 kmh SE 4.0 mph6.4 kmh 29.98 in1015.2 mb 0.00 in0.0 mm 0.00 in0.0 mm 0.00 in0.0 mm
05:18 AM 43.5°F6.4°C 34.7°F1.5°C 71% 2.0 mph SE3.2 kmh SE 4.0 mph6.4 kmh 29.98 in1015.2 mb 0.00 in0.0 mm 0.00 in0.0 mm 0.00 in0.0 mm
05:16 AM 43.7°F6.5°C 34.9°F1.6°C 71% 1.0 mph SE1.6 kmh SE 4.0 mph6.4 kmh 29.98 in1015.2 mb 0.00 in0.0 mm 0.00 in0.0 mm 0.00 in0.0 mm
05:14 AM 43.7°F6.5°C 34.9°F1.6°C 71% 1.0 mph SE1.6 kmh SE 4.0 mph6.4 kmh 29.98 in1015.2 mb 0.00 in0.0 mm 0.00 in0.0 mm 0.00 in0.0 mm
05:12 AM 43.8°F6.6°C 34.7°F1.5°C 70% Calm Calm 4.0 mph6.4 kmh 29.98 in1015.2 mb 0.00 in0.0 mm 0.00 in0.0 mm 0.00 in0.0 mm
05:10 AM 43.9°F6.6°C 34.8°F1.6°C 70% 1.0 mph SE1.6 kmh SE 4.0 mph6.4 kmh 29.98 in1015.2 mb 0.00 in0.0 mm 0.00 in0.0 mm 0.00 in0.0 mm
05:08 AM 44.0°F6.7°C 34.9°F1.6°C 70% 3.0 mph SE4.8 kmh SE 4.0 mph6.4 kmh 29.98 in1015.2 mb 0.00 in0.0 mm 0.00 in0.0 mm 0.00 in0.0 mm
05:06 AM 43.9°F6.6°C 34.8°F1.6°C 70% 1.0 mph SE1.6 kmh SE 3.0 mph4.8 kmh 29.97 in1014.9 mb 0.00 in0.0 mm 0.00 in0.0 mm 0.00 in0.0 mm
05:04 AM 44.0°F6.7°C 34.9°F1.6°C 70% 2.0 mph SE3.2 kmh SE 3.0 mph4.8 kmh 29.97 in1014.9 mb 0.00 in0.0 mm 0.00 in0.0 mm 0.00 in0.0 mm
05:02 AM 44.1°F6.7°C 35.0°F1.7°C 70% 1.0 mph SE1.6 kmh SE 6.0 mph9.7 kmh 29.97 in1014.9 mb 0.00 in0.0 mm 0.00 in0.0 mm 0.00 in0.0 mm
05:00 AM 44.1°F6.7°C 35.0°F1.7°C 70% 1.0 mph SE1.6 kmh SE 6.0 mph9.7 kmh 29.97 in1014.9 mb 0.00 in0.0 mm 0.00 in0.0 mm 0.00 in0.0 mm
04:58 AM 44.1°F6.7°C 35.0°F1.7°C 70% 1.0 mph SE1.6 kmh SE 6.0 mph9.7 kmh 29.97 in1014.9 mb 0.00 in0.0 mm 0.00 in0.0 mm 0.00 in0.0 mm
04:56 AM 44.1°F6.7°C 35.0°F1.7°C 70% 4.0 mph SSE6.4 kmh SSE 6.0 mph9.7 kmh 29.97 in1014.9 mb 0.00 in0.0 mm 0.00 in0.0 mm 0.00 in0.0 mm
04:54 AM 44.1°F6.7°C 35.0°F1.7°C 70% 2.0 mph SE3.2 kmh SE 6.0 mph9.7 kmh 29.97 in1014.9 mb 0.00 in0.0 mm 0.00 in0.0 mm 0.00 in0.0 mm
04:52 AM 44.1°F6.7°C 35.0°F1.7°C 70% 3.0 mph SE4.8 kmh SE 6.0 mph9.7 kmh 29.97 in1014.9 mb 0.00 in0.0 mm 0.00 in0.0 mm 0.00 in0.0 mm
04:50 AM 44.1°F6.7°C 35.0°F1.7°C 70% 4.0 mph SE6.4 kmh SE 6.0 mph9.7 kmh 29.98 in1015.2 mb 0.00 in0.0 mm 0.00 in0.0 mm 0.00 in0.0 mm
04:48 AM 44.1°F6.7°C 35.0°F1.7°C 70% 2.0 mph SE3.2 kmh SE 6.0 mph9.7 kmh 29.98 in1015.2 mb 0.00 in0.0 mm 0.00 in0.0 mm 0.00 in0.0 mm
04:46 AM 44.2°F6.8°C 35.1°F1.7°C 70% 2.0 mph SE3.2 kmh SE 6.0 mph9.7 kmh 29.98 in1015.2 mb 0.00 in0.0 mm 0.00 in0.0 mm 0.00 in0.0 mm
04:43 AM 44.1°F6.7°C 35.0°F1.7°C 70% 2.0 mph S3.2 kmh S 6.0 mph9.7 kmh 29.98 in1015.2 mb 0.00 in0.0 mm 0.00 in0.0 mm 0.00 in0.0 mm
04:41 AM 44.0°F6.7°C 34.9°F1.6°C 70% 3.0 mph SE4.8 kmh SE 6.0 mph9.7 kmh 29.98 in1015.2 mb 0.00 in0.0 mm 0.00 in0.0 mm 0.00 in0.0 mm
04:40 AM 44.1°F6.7°C 35.0°F1.7°C 70% 2.0 mph SE3.2 kmh SE 6.0 mph9.7 kmh 29.98 in1015.2 mb 0.00 in0.0 mm 0.00 in0.0 mm 0.00 in0.0 mm
04:38 AM 44.1°F6.7°C 35.0°F1.7°C 70% 3.0 mph SSE4.8 kmh SSE 6.0 mph9.7 kmh 29.98 in1015.2 mb 0.00 in0.0 mm 0.00 in0.0 mm 0.00 in0.0 mm
04:36 AM 44.2°F6.8°C 35.1°F1.7°C 70% 2.0 mph SE3.2 kmh SE 4.0 mph6.4 kmh 29.98 in1015.2 mb 0.00 in0.0 mm 0.00 in0.0 mm 0.00 in0.0 mm
04:34 AM 44.3°F6.8°C 34.8°F1.6°C 69% 3.0 mph SE4.8 kmh SE 4.0 mph6.4 kmh 29.98 in1015.2 mb 0.00 in0.0 mm 0.00 in0.0 mm 0.00 in0.0 mm
04:32 AM 44.3°F6.8°C 34.8°F1.6°C 69% 2.0 mph SE3.2 kmh SE 5.0 mph8.0 kmh 29.98 in1015.2 mb 0.00 in0.0 mm 0.00 in0.0 mm 0.00 in0.0 mm
04:30 AM 44.4°F6.9°C 34.9°F1.6°C 69% 2.0 mph SE3.2 kmh SE 5.0 mph8.0 kmh 29.98 in1015.2 mb 0.00 in0.0 mm 0.00 in0.0 mm 0.00 in0.0 mm
04:28 AM 44.5°F6.9°C 35.0°F1.7°C 69% 1.0 mph SE1.6 kmh SE 5.0 mph8.0 kmh 29.98 in1015.2 mb 0.00 in0.0 mm 0.00 in0.0 mm 0.00 in0.0 mm
04:26 AM 44.6°F7.0°C 35.1°F1.7°C 69% 2.0 mph SE3.2 kmh SE 5.0 mph8.0 kmh 29.98 in1015.2 mb 0.00 in0.0 mm 0.00 in0.0 mm 0.00 in0.0 mm
04:24 AM 44.7°F7.1°C 35.2°F1.8°C 69% 1.0 mph SE1.6 kmh SE 5.0 mph8.0 kmh 29.98 in1015.2 mb 0.00 in0.0 mm 0.00 in0.0 mm 0.00 in0.0 mm
04:22 AM 44.8°F7.1°C 35.3°F1.8°C 69% 2.0 mph SSE3.2 kmh SSE 5.0 mph8.0 kmh 29.98 in1015.2 mb 0.00 in0.0 mm 0.00 in0.0 mm 0.00 in0.0 mm
04:20 AM 44.8°F7.1°C 34.9°F1.6°C 68% 2.0 mph SE3.2 kmh SE 5.0 mph8.0 kmh 29.98 in1015.2 mb 0.00 in0.0 mm 0.00 in0.0 mm 0.00 in0.0 mm
04:18 AM 44.8°F7.1°C 34.9°F1.6°C 68% 2.0 mph SSE3.2 kmh SSE 5.0 mph8.0 kmh 29.98 in1015.2 mb 0.00 in0.0 mm 0.00 in0.0 mm 0.00 in0.0 mm
04:16 AM 44.9°F7.2°C 35.0°F1.7°C 68% 1.0 mph SE1.6 kmh SE 5.0 mph8.0 kmh 29.98 in1015.2 mb 0.00 in0.0 mm 0.00 in0.0 mm 0.00 in0.0 mm
04:14 AM 44.9°F7.2°C 35.0°F1.7°C 68% 3.0 mph SE4.8 kmh SE 4.0 mph6.4 kmh 29.98 in1015.2 mb 0.00 in0.0 mm 0.00 in0.0 mm 0.00 in0.0 mm
04:12 AM 44.9°F7.2°C 35.0°F1.7°C 68% 3.0 mph SE4.8 kmh SE 4.0 mph6.4 kmh 29.98 in1015.2 mb 0.00 in0.0 mm 0.00 in0.0 mm 0.00 in0.0 mm
04:10 AM 44.9°F7.2°C 35.0°F1.7°C 68% 3.0 mph SE4.8 kmh SE 4.0 mph6.4 kmh 29.99 in1015.6 mb 0.00 in0.0 mm 0.00 in0.0 mm 0.00 in0.0 mm
04:08 AM 44.9°F7.2°C 35.0°F1.7°C 68% 1.0 mph SSE1.6 kmh SSE 4.0 mph6.4 kmh 29.99 in1015.6 mb 0.00 in0.0 mm 0.00 in0.0 mm 0.00 in0.0 mm
04:06 AM 45.0°F7.2°C 35.1°F1.7°C 68% 2.0 mph SE3.2 kmh SE 3.0 mph4.8 kmh 29.99 in1015.6 mb 0.00 in0.0 mm 0.00 in0.0 mm 0.00 in0.0 mm
04:04 AM 45.0°F7.2°C 35.1°F1.7°C 68% 2.0 mph SSE3.2 kmh SSE 3.0 mph4.8 kmh 29.99 in1015.6 mb 0.00 in0.0 mm 0.00 in0.0 mm 0.00 in0.0 mm
04:02 AM 45.0°F7.2°C 35.1°F1.7°C 68% 2.0 mph SSE3.2 kmh SSE 3.0 mph4.8 kmh 29.99 in1015.6 mb 0.00 in0.0 mm 0.00 in0.0 mm 0.00 in0.0 mm
04:00 AM 45.0°F7.2°C 35.1°F1.7°C 68% 1.0 mph SSE1.6 kmh SSE 6.0 mph9.7 kmh 29.99 in1015.6 mb 0.00 in0.0 mm 0.00 in0.0 mm 0.00 in0.0 mm
03:58 AM 45.1°F7.3°C 35.2°F1.8°C 68% 2.0 mph SE3.2 kmh SE 6.0 mph9.7 kmh 29.99 in1015.6 mb 0.00 in0.0 mm 0.00 in0.0 mm 0.00 in0.0 mm
03:56 AM 45.2°F7.3°C 35.3°F1.8°C 68% 1.0 mph SE1.6 kmh SE 6.0 mph9.7 kmh 29.99 in1015.6 mb 0.00 in0.0 mm 0.00 in0.0 mm 0.00 in0.0 mm
03:53 AM 45.2°F7.3°C 35.3°F1.8°C 68% 1.0 mph SE1.6 kmh SE 6.0 mph9.7 kmh 29.98 in1015.2 mb 0.00 in0.0 mm 0.00 in0.0 mm 0.00 in0.0 mm
03:51 AM 45.3°F7.4°C 35.4°F1.9°C 68% 2.0 mph SE3.2 kmh SE 6.0 mph9.7 kmh 29.98 in1015.2 mb 0.00 in0.0 mm 0.00 in0.0 mm 0.00 in0.0 mm
03:50 AM 45.3°F7.4°C 35.4°F1.9°C 68% 3.0 mph SE4.8 kmh SE 6.0 mph9.7 kmh 29.98 in1015.2 mb 0.00 in0.0 mm 0.00 in0.0 mm 0.00 in0.0 mm
03:48 AM 45.4°F7.4°C 35.5°F1.9°C 68% 2.0 mph S3.2 kmh S 6.0 mph9.7 kmh 29.98 in1015.2 mb 0.00 in0.0 mm 0.00 in0.0 mm 0.00 in0.0 mm
03:46 AM 45.5°F7.5°C 35.6°F2.0°C 68% 4.0 mph SE6.4 kmh SE 6.0 mph9.7 kmh 29.98 in1015.2 mb 0.00 in0.0 mm 0.00 in0.0 mm 0.00 in0.0 mm
03:44 AM 45.4°F7.4°C 35.5°F1.9°C 68% 2.0 mph SSE3.2 kmh SSE 6.0 mph9.7 kmh 29.98 in1015.2 mb 0.00 in0.0 mm 0.00 in0.0 mm 0.00 in0.0 mm
03:42 AM 45.5°F7.5°C 35.6°F2.0°C 68% 3.0 mph SE4.8 kmh SE 5.0 mph8.0 kmh 29.98 in1015.2 mb 0.00 in0.0 mm 0.00 in0.0 mm 0.00 in0.0 mm
03:40 AM 45.5°F7.5°C 35.6°F2.0°C 68% 3.0 mph SSE4.8 kmh SSE 4.0 mph6.4 kmh 29.98 in1015.2 mb 0.00 in0.0 mm 0.00 in0.0 mm 0.00 in0.0 mm
03:38 AM 45.6°F7.6°C 35.3°F1.8°C 67% 3.0 mph SE4.8 kmh SE 4.0 mph6.4 kmh 29.98 in1015.2 mb 0.00 in0.0 mm 0.00 in0.0 mm 0.00 in0.0 mm
03:36 AM 45.7°F7.6°C 35.4°F1.9°C 67% 3.0 mph SE4.8 kmh SE 4.0 mph6.4 kmh 29.99 in1015.6 mb 0.00 in0.0 mm 0.00 in0.0 mm 0.00 in0.0 mm
03:34 AM 45.7°F7.6°C 35.4°F1.9°C 67% 3.0 mph SE4.8 kmh SE 4.0 mph6.4 kmh 29.99 in1015.6 mb 0.00 in0.0 mm 0.00 in0.0 mm 0.00 in0.0 mm
03:32 AM 45.7°F7.6°C 35.4°F1.9°C 67% 2.0 mph SE3.2 kmh SE 5.0 mph8.0 kmh 29.99 in1015.6 mb 0.00 in0.0 mm 0.00 in0.0 mm 0.00 in0.0 mm
03:30 AM 45.7°F7.6°C 35.4°F1.9°C 67% 2.0 mph SE3.2 kmh SE 4.0 mph6.4 kmh 29.99 in1015.6 mb 0.00 in0.0 mm 0.00 in0.0 mm 0.00 in0.0 mm
03:28 AM 45.7°F7.6°C 35.4°F1.9°C 67% 2.0 mph SE3.2 kmh SE 4.0 mph6.4 kmh 29.99 in1015.6 mb 0.00 in0.0 mm 0.00 in0.0 mm 0.00 in0.0 mm
03:26 AM 45.7°F7.6°C 35.4°F1.9°C 67% 2.0 mph SE3.2 kmh SE 4.0 mph6.4 kmh 29.99 in1015.6 mb 0.00 in0.0 mm 0.00 in0.0 mm 0.00 in0.0 mm
03:24 AM 45.7°F7.6°C 35.4°F1.9°C 67% 2.0 mph SE3.2 kmh SE 4.0 mph6.4 kmh 29.99 in1015.6 mb 0.00 in0.0 mm 0.00 in0.0 mm 0.00 in0.0 mm
03:23 AM 45.7°F7.6°C 35.4°F1.9°C 67% 2.0 mph SE3.2 kmh SE 4.0 mph6.4 kmh 29.99 in1015.6 mb 0.00 in0.0 mm 0.00 in0.0 mm 0.00 in0.0 mm
03:20 AM 45.7°F7.6°C 35.4°F1.9°C 67% 2.0 mph SE3.2 kmh SE 4.0 mph6.4 kmh 29.99 in1015.6 mb 0.00 in0.0 mm 0.00 in0.0 mm 0.00 in0.0 mm
03:18 AM 45.7°F7.6°C 35.4°F1.9°C 67% 3.0 mph SE4.8 kmh SE 4.0 mph6.4 kmh 29.99 in1015.6 mb 0.00 in0.0 mm 0.00 in0.0 mm 0.00 in0.0 mm
03:16 AM 45.8°F7.7°C 35.5°F1.9°C 67% 2.0 mph SE3.2 kmh SE 4.0 mph6.4 kmh 29.99 in1015.6 mb 0.00 in0.0 mm 0.00 in0.0 mm 0.00 in0.0 mm
03:13 AM 45.9°F7.7°C 35.6°F2.0°C 67% 1.0 mph SE1.6 kmh SE 4.0 mph6.4 kmh 29.99 in1015.6 mb 0.00 in0.0 mm 0.00 in0.0 mm 0.00 in0.0 mm
03:11 AM 46.0°F7.8°C 35.7°F2.1°C 67% 2.0 mph SE3.2 kmh SE 4.0 mph6.4 kmh 29.99 in1015.6 mb 0.00 in0.0 mm 0.00 in0.0 mm 0.00 in0.0 mm
03:10 AM 45.9°F7.7°C 35.6°F2.0°C 67% 2.0 mph SE3.2 kmh SE 4.0 mph6.4 kmh 29.99 in1015.6 mb 0.00 in0.0 mm 0.00 in0.0 mm 0.00 in0.0 mm
03:08 AM 46.1°F7.8°C 35.8°F2.1°C 67% 1.0 mph SE1.6 kmh SE 3.0 mph4.8 kmh 29.99 in1015.6 mb 0.00 in0.0 mm 0.00 in0.0 mm 0.00 in0.0 mm
03:06 AM 46.1°F7.8°C 35.8°F2.1°C 67% 1.0 mph SE1.6 kmh SE 3.0 mph4.8 kmh 30.00 in1015.9 mb 0.00 in0.0 mm 0.00 in0.0 mm 0.00 in0.0 mm
03:03 AM 46.1°F7.8°C 35.4°F1.9°C 66% 3.0 mph SE4.8 kmh SE 3.0 mph4.8 kmh 30.00 in1015.9 mb 0.00 in0.0 mm 0.00 in0.0 mm 0.00 in0.0 mm
03:02 AM 46.2°F7.9°C 35.5°F1.9°C 66% 2.0 mph SE3.2 kmh SE 8.0 mph12.9 kmh 30.00 in1015.9 mb 0.00 in0.0 mm 0.00 in0.0 mm 0.00 in0.0 mm
03:00 AM 46.2°F7.9°C 35.5°F1.9°C 66% 2.0 mph SSE3.2 kmh SSE 8.0 mph12.9 kmh 30.00 in1015.9 mb 0.00 in0.0 mm 0.00 in0.0 mm 0.00 in0.0 mm
02:58 AM 46.2°F7.9°C 35.5°F1.9°C 66% 3.0 mph ESE4.8 kmh ESE 8.0 mph12.9 kmh 30.00 in1015.9 mb 0.00 in0.0 mm 0.00 in0.0 mm 0.00 in0.0 mm
02:56 AM 46.2°F7.9°C 35.5°F1.9°C 66% 4.0 mph SE6.4 kmh SE 8.0 mph12.9 kmh 29.99 in1015.6 mb 0.00 in0.0 mm 0.00 in0.0 mm 0.00 in0.0 mm
02:54 AM 46.2°F7.9°C 35.5°F1.9°C 66% 3.0 mph SE4.8 kmh SE 8.0 mph12.9 kmh 29.99 in1015.6 mb 0.00 in0.0 mm 0.00 in0.0 mm 0.00 in0.0 mm
02:52 AM 46.2°F7.9°C 35.5°F1.9°C 66% 4.0 mph S6.4 kmh S 8.0 mph12.9 kmh 29.99 in1015.6 mb 0.00 in0.0 mm 0.00 in0.0 mm 0.00 in0.0 mm
02:50 AM 46.2°F7.9°C 35.5°F1.9°C 66% 3.0 mph SE4.8 kmh SE 8.0 mph12.9 kmh 29.99 in1015.6 mb 0.00 in0.0 mm 0.00 in0.0 mm 0.00 in0.0 mm
02:48 AM 46.2°F7.9°C 35.5°F1.9°C 66% 4.0 mph SE6.4 kmh SE 6.0 mph9.7 kmh 29.99 in1015.6 mb 0.00 in0.0 mm 0.00 in0.0 mm 0.00 in0.0 mm
02:46 AM 46.1°F7.8°C 35.8°F2.1°C 67% 5.0 mph SE8.0 kmh SE 6.0 mph9.7 kmh 30.00 in1015.9 mb 0.00 in0.0 mm 0.00 in0.0 mm 0.00 in0.0 mm
02:44 AM 46.2°F7.9°C 35.9°F2.2°C 67% 2.0 mph S3.2 kmh S 6.0 mph9.7 kmh 30.00 in1015.9 mb 0.00 in0.0 mm 0.00 in0.0 mm 0.00 in0.0 mm
02:41 AM 46.1°F7.8°C 35.8°F2.1°C 67% 1.0 mph SSE1.6 kmh SSE 6.0 mph9.7 kmh 30.00 in1015.9 mb 0.00 in0.0 mm 0.00 in0.0 mm 0.00 in0.0 mm
02:40 AM 46.2°F7.9°C 35.9°F2.2°C 67% 4.0 mph SE6.4 kmh SE 6.0 mph9.7 kmh 30.00 in1015.9 mb 0.00 in0.0 mm 0.00 in0.0 mm 0.00 in0.0 mm
02:38 AM 46.2°F7.9°C 35.5°F1.9°C 66% 3.0 mph SE4.8 kmh SE 6.0 mph9.7 kmh 30.00 in1015.9 mb 0.00 in0.0 mm 0.00 in0.0 mm 0.00 in0.0 mm
02:36 AM 46.2°F7.9°C 35.5°F1.9°C 66% 2.0 mph SE3.2 kmh SE 6.0 mph9.7 kmh 30.00 in1015.9 mb 0.00 in0.0 mm 0.00 in0.0 mm 0.00 in0.0 mm
02:34 AM 46.2°F7.9°C 35.5°F1.9°C 66% 4.0 mph SE6.4 kmh SE 6.0 mph9.7 kmh 30.00 in1015.9 mb 0.00 in0.0 mm 0.00 in0.0 mm 0.00 in0.0 mm
02:32 AM 46.3°F7.9°C 35.6°F2.0°C 66% 2.0 mph SSE3.2 kmh SSE 3.0 mph4.8 kmh 30.00 in1015.9 mb 0.00 in0.0 mm 0.00 in0.0 mm 0.00 in0.0 mm
02:30 AM 46.3°F7.9°C 35.6°F2.0°C 66% 3.0 mph SE4.8 kmh SE 5.0 mph8.0 kmh 30.00 in1015.9 mb 0.00 in0.0 mm 0.00 in0.0 mm 0.00 in0.0 mm
02:28 AM 46.4°F8.0°C 35.7°F2.1°C 66% 2.0 mph SSE3.2 kmh SSE 5.0 mph8.0 kmh 30.00 in1015.9 mb 0.00 in0.0 mm 0.00 in0.0 mm 0.00 in0.0 mm
02:26 AM 46.4°F8.0°C 35.7°F2.1°C 66% 5.0 mph SE8.0 kmh SE 5.0 mph8.0 kmh 30.00 in1015.9 mb 0.00 in0.0 mm 0.00 in0.0 mm 0.00 in0.0 mm
02:24 AM 46.4°F8.0°C 35.7°F2.1°C 66% 3.0 mph SE4.8 kmh SE 5.0 mph8.0 kmh 30.01 in1016.3 mb 0.00 in0.0 mm 0.00 in0.0 mm 0.00 in0.0 mm
02:22 AM 46.5°F8.1°C 35.8°F2.1°C 66% 1.0 mph SE1.6 kmh SE 5.0 mph8.0 kmh 30.01 in1016.3 mb 0.00 in0.0 mm 0.00 in0.0 mm 0.00 in0.0 mm
02:20 AM 46.6°F8.1°C 35.9°F2.2°C 66% 3.0 mph SE4.8 kmh SE 5.0 mph8.0 kmh 30.00 in1015.9 mb 0.00 in0.0 mm 0.00 in0.0 mm 0.00 in0.0 mm
02:18 AM 46.6°F8.1°C 35.5°F1.9°C 65% 3.0 mph SE4.8 kmh SE 5.0 mph8.0 kmh 30.00 in1015.9 mb 0.00 in0.0 mm 0.00 in0.0 mm 0.00 in0.0 mm
02:16 AM 46.6°F8.1°C 35.5°F1.9°C 65% 1.0 mph SSE1.6 kmh SSE 5.0 mph8.0 kmh 30.00 in1015.9 mb 0.00 in0.0 mm 0.00 in0.0 mm 0.00 in0.0 mm
02:13 AM 46.7°F8.2°C 35.6°F2.0°C 65% 3.0 mph SE4.8 kmh SE 5.0 mph8.0 kmh 30.00 in1015.9 mb 0.00 in0.0 mm 0.00 in0.0 mm 0.00 in0.0 mm
02:11 AM 46.7°F8.2°C 35.6°F2.0°C 65% 1.0 mph SE1.6 kmh SE 5.0 mph8.0 kmh 30.01 in1016.3 mb 0.00 in0.0 mm 0.00 in0.0 mm 0.00 in0.0 mm
02:10 AM 46.8°F8.2°C 35.7°F2.1°C 65% 2.0 mph SE3.2 kmh SE 4.0 mph6.4 kmh 30.01 in1016.3 mb 0.00 in0.0 mm 0.00 in0.0 mm 0.00 in0.0 mm
01:56 AM 47.1°F8.4°C 35.6°F2.0°C 64% 1.0 mph SSE1.6 kmh SSE 5.0 mph8.0 kmh 30.01 in1016.3 mb 0.00 in0.0 mm 0.00 in0.0 mm 0.00 in0.0 mm
01:54 AM 47.1°F8.4°C 35.6°F2.0°C 64% 1.0 mph SSE1.6 kmh SSE 5.0 mph8.0 kmh 30.01 in1016.3 mb 0.00 in0.0 mm 0.00 in0.0 mm 0.00 in0.0 mm
01:52 AM 47.1°F8.4°C 35.6°F2.0°C 64% 1.0 mph SSE1.6 kmh SSE 5.0 mph8.0 kmh 30.01 in1016.3 mb 0.00 in0.0 mm 0.00 in0.0 mm 0.00 in0.0 mm
01:50 AM 47.1°F8.4°C 35.6°F2.0°C 64% 3.0 mph SSE4.8 kmh SSE 5.0 mph8.0 kmh 30.00 in1015.9 mb 0.00 in0.0 mm 0.00 in0.0 mm 0.00 in0.0 mm
01:48 AM 47.1°F8.4°C 35.6°F2.0°C 64% 2.0 mph SSE3.2 kmh SSE 5.0 mph8.0 kmh 30.01 in1016.3 mb 0.00 in0.0 mm 0.00 in0.0 mm 0.00 in0.0 mm
01:45 AM 47.1°F8.4°C 35.6°F2.0°C 64% 2.0 mph SSE3.2 kmh SSE 5.0 mph8.0 kmh 30.01 in1016.3 mb 0.00 in0.0 mm 0.00 in0.0 mm 0.00 in0.0 mm
01:44 AM 47.1°F8.4°C 35.6°F2.0°C 64% 1.0 mph SSE1.6 kmh SSE 5.0 mph8.0 kmh 30.01 in1016.3 mb 0.00 in0.0 mm 0.00 in0.0 mm 0.00 in0.0 mm
01:42 AM 47.1°F8.4°C 35.6°F2.0°C 64% 1.0 mph SSE1.6 kmh SSE 5.0 mph8.0 kmh 30.01 in1016.3 mb 0.00 in0.0 mm 0.00 in0.0 mm 0.00 in0.0 mm
01:40 AM 47.1°F8.4°C 35.6°F2.0°C 64% 3.0 mph SSE4.8 kmh SSE 5.0 mph8.0 kmh 30.00 in1015.9 mb 0.00 in0.0 mm 0.00 in0.0 mm 0.00 in0.0 mm
01:38 AM 47.1°F8.4°C 35.6°F2.0°C 64% 2.0 mph SSE3.2 kmh SSE 5.0 mph8.0 kmh 30.01 in1016.3 mb 0.00 in0.0 mm 0.00 in0.0 mm 0.00 in0.0 mm
01:36 AM 47.1°F8.4°C 35.6°F2.0°C 64% 2.0 mph SSE3.2 kmh SSE 5.0 mph8.0 kmh 30.00 in1015.9 mb 0.00 in0.0 mm 0.00 in0.0 mm 0.00 in0.0 mm
01:34 AM 47.1°F8.4°C 35.6°F2.0°C 64% 2.0 mph SSE3.2 kmh SSE 3.0 mph4.8 kmh 30.01 in1016.3 mb 0.00 in0.0 mm 0.00 in0.0 mm 0.00 in0.0 mm
01:32 AM 47.1°F8.4°C 35.6°F2.0°C 64% 2.0 mph SE3.2 kmh SE 4.0 mph6.4 kmh 30.01 in1016.3 mb 0.00 in0.0 mm 0.00 in0.0 mm 0.00 in0.0 mm
01:30 AM 47.2°F8.4°C 35.7°F2.1°C 64% 1.0 mph SE1.6 kmh SE 4.0 mph6.4 kmh 30.01 in1016.3 mb 0.00 in0.0 mm 0.00 in0.0 mm 0.00 in0.0 mm
01:28 AM 47.1°F8.4°C 35.6°F2.0°C 64% 1.0 mph SE1.6 kmh SE 4.0 mph6.4 kmh 30.01 in1016.3 mb 0.00 in0.0 mm 0.00 in0.0 mm 0.00 in0.0 mm
01:26 AM 47.1°F8.4°C 35.6°F2.0°C 64% 2.0 mph SE3.2 kmh SE 4.0 mph6.4 kmh 30.01 in1016.3 mb 0.00 in0.0 mm 0.00 in0.0 mm 0.00 in0.0 mm
01:24 AM 47.1°F8.4°C 35.6°F2.0°C 64% 1.0 mph SE1.6 kmh SE 4.0 mph6.4 kmh 30.01 in1016.3 mb 0.00 in0.0 mm 0.00 in0.0 mm 0.00 in0.0 mm
01:23 AM 47.2°F8.4°C 35.7°F2.1°C 64% 1.0 mph SE1.6 kmh SE 4.0 mph6.4 kmh 30.01 in1016.3 mb 0.00 in0.0 mm 0.00 in0.0 mm 0.00 in0.0 mm
01:20 AM 47.2°F8.4°C 35.7°F2.1°C 64% 1.0 mph SE1.6 kmh SE 4.0 mph6.4 kmh 30.01 in1016.3 mb 0.00 in0.0 mm 0.00 in0.0 mm 0.00 in0.0 mm
01:18 AM 47.2°F8.4°C 35.7°F2.1°C 64% 2.0 mph SE3.2 kmh SE 4.0 mph6.4 kmh 30.01 in1016.3 mb 0.00 in0.0 mm 0.00 in0.0 mm 0.00 in0.0 mm
01:16 AM 47.3°F8.5°C 35.8°F2.1°C 64% Calm Calm 4.0 mph6.4 kmh 30.01 in1016.3 mb 0.00 in0.0 mm 0.00 in0.0 mm 0.00 in0.0 mm
01:13 AM 47.3°F8.5°C 35.8°F2.1°C 64% Calm Calm 4.0 mph6.4 kmh 30.01 in1016.3 mb 0.00 in0.0 mm 0.00 in0.0 mm 0.00 in0.0 mm
01:11 AM 47.3°F8.5°C 35.8°F2.1°C 64% 1.0 mph SE1.6 kmh SE 4.0 mph6.4 kmh 30.01 in1016.3 mb 0.00 in0.0 mm 0.00 in0.0 mm 0.00 in0.0 mm
01:10 AM 47.4°F8.6°C 35.5°F1.9°C 63% 1.0 mph SE1.6 kmh SE 4.0 mph6.4 kmh 30.01 in1016.3 mb 0.00 in0.0 mm 0.00 in0.0 mm 0.00 in0.0 mm
01:08 AM 47.4°F8.6°C 35.5°F1.9°C 63% 1.0 mph SE1.6 kmh SE 4.0 mph6.4 kmh 30.00 in1015.9 mb 0.00 in0.0 mm 0.00 in0.0 mm 0.00 in0.0 mm
01:06 AM 47.4°F8.6°C 35.5°F1.9°C 63% 1.0 mph SE1.6 kmh SE 4.0 mph6.4 kmh 30.01 in1016.3 mb 0.00 in0.0 mm 0.00 in0.0 mm 0.00 in0.0 mm
01:04 AM 47.4°F8.6°C 35.5°F1.9°C 63% Calm Calm 3.0 mph4.8 kmh 30.00 in1015.9 mb 0.00 in0.0 mm 0.00 in0.0 mm 0.00 in0.0 mm
01:02 AM 47.5°F8.6°C 35.6°F2.0°C 63% 3.0 mph SSE4.8 kmh SSE 5.0 mph8.0 kmh 30.01 in1016.3 mb 0.00 in0.0 mm 0.00 in0.0 mm 0.00 in0.0 mm
01:00 AM 47.5°F8.6°C 35.6°F2.0°C 63% 3.0 mph SSE4.8 kmh SSE 5.0 mph8.0 kmh 30.00 in1015.9 mb 0.00 in0.0 mm 0.00 in0.0 mm 0.00 in0.0 mm
12:58 AM 47.5°F8.6°C 35.6°F2.0°C 63% 2.0 mph SSE3.2 kmh SSE 5.0 mph8.0 kmh 30.00 in1015.9 mb 0.00 in0.0 mm 0.00 in0.0 mm 0.00 in0.0 mm
12:56 AM 47.5°F8.6°C 35.6°F2.0°C 63% 2.0 mph SSE3.2 kmh SSE 5.0 mph8.0 kmh 30.00 in1015.9 mb 0.00 in0.0 mm 0.00 in0.0 mm 0.00 in0.0 mm
12:54 AM 47.5°F8.6°C 35.6°F2.0°C 63% 2.0 mph SE3.2 kmh SE 5.0 mph8.0 kmh 30.00 in1015.9 mb 0.00 in0.0 mm 0.00 in0.0 mm 0.00 in0.0 mm
12:52 AM 47.6°F8.7°C 35.6°F2.0°C 63% 1.0 mph SE1.6 kmh SE 5.0 mph8.0 kmh 30.00 in1015.9 mb 0.00 in0.0 mm 0.00 in0.0 mm 0.00 in0.0 mm
12:50 AM 47.7°F8.7°C 35.7°F2.1°C 63% 2.0 mph SSE3.2 kmh SSE 5.0 mph8.0 kmh 30.00 in1015.9 mb 0.00 in0.0 mm 0.00 in0.0 mm 0.00 in0.0 mm
12:48 AM 47.7°F8.7°C 35.7°F2.1°C 63% 1.0 mph S1.6 kmh S 5.0 mph8.0 kmh 30.00 in1015.9 mb 0.00 in0.0 mm 0.00 in0.0 mm 0.00 in0.0 mm
12:46 AM 47.8°F8.8°C 35.8°F2.1°C 63% 3.0 mph SE4.8 kmh SE 5.0 mph8.0 kmh 30.00 in1015.9 mb 0.00 in0.0 mm 0.00 in0.0 mm 0.00 in0.0 mm
12:44 AM 47.9°F8.8°C 35.5°F1.9°C 62% 4.0 mph SSE6.4 kmh SSE 5.0 mph8.0 kmh 30.00 in1015.9 mb 0.00 in0.0 mm 0.00 in0.0 mm 0.00 in0.0 mm
12:42 AM 48.0°F8.9°C 35.6°F2.0°C 62% 2.0 mph SE3.2 kmh SE 5.0 mph8.0 kmh 30.00 in1015.9 mb 0.00 in0.0 mm 0.00 in0.0 mm 0.00 in0.0 mm
12:40 AM 48.0°F8.9°C 35.6°F2.0°C 62% 3.0 mph S4.8 kmh S 5.0 mph8.0 kmh 30.01 in1016.3 mb 0.00 in0.0 mm 0.00 in0.0 mm 0.00 in0.0 mm
12:38 AM 48.1°F8.9°C 35.7°F2.1°C 62% 2.0 mph SE3.2 kmh SE 5.0 mph8.0 kmh 30.00 in1015.9 mb 0.00 in0.0 mm 0.00 in0.0 mm 0.00 in0.0 mm
12:36 AM 48.2°F9.0°C 35.8°F2.1°C 62% 3.0 mph SE4.8 kmh SE 5.0 mph8.0 kmh 30.00 in1015.9 mb 0.00 in0.0 mm 0.00 in0.0 mm 0.00 in0.0 mm
12:34 AM 48.2°F9.0°C 35.8°F2.1°C 62% 2.0 mph SSE3.2 kmh SSE 5.0 mph8.0 kmh 30.00 in1015.9 mb 0.00 in0.0 mm 0.00 in0.0 mm 0.00 in0.0 mm
12:31 AM 48.3°F9.1°C 35.9°F2.2°C 62% 2.0 mph SSE3.2 kmh SSE 8.0 mph12.9 kmh 30.00 in1015.9 mb 0.00 in0.0 mm 0.00 in0.0 mm 0.00 in0.0 mm
12:28 AM 48.4°F9.1°C 35.6°F2.0°C 61% 5.0 mph SE8.0 kmh SE 8.0 mph12.9 kmh 30.00 in1015.9 mb 0.00 in0.0 mm 0.00 in0.0 mm 0.00 in0.0 mm
12:26 AM 48.4°F9.1°C 35.6°F2.0°C 61% 4.0 mph SSE6.4 kmh SSE 8.0 mph12.9 kmh 30.00 in1015.9 mb 0.00 in0.0 mm 0.00 in0.0 mm 0.00 in0.0 mm
12:24 AM 48.4°F9.1°C 35.6°F2.0°C 61% 4.0 mph SSE6.4 kmh SSE 8.0 mph12.9 kmh 30.00 in1015.9 mb 0.00 in0.0 mm 0.00 in0.0 mm 0.00 in0.0 mm
12:22 AM 48.4°F9.1°C 35.6°F2.0°C 61% 5.0 mph SE8.0 kmh SE 8.0 mph12.9 kmh 30.00 in1015.9 mb 0.00 in0.0 mm 0.00 in0.0 mm 0.00 in0.0 mm
12:20 AM 48.5°F9.2°C 35.7°F2.1°C 61% 1.0 mph SE1.6 kmh SE 8.0 mph12.9 kmh 30.00 in1015.9 mb 0.00 in0.0 mm 0.00 in0.0 mm 0.00 in0.0 mm
12:18 AM 48.5°F9.2°C 35.7°F2.1°C 61% 4.0 mph S6.4 kmh S 8.0 mph12.9 kmh 30.00 in1015.9 mb 0.00 in0.0 mm 0.00 in0.0 mm 0.00 in0.0 mm
12:16 AM 48.6°F9.2°C 35.8°F2.1°C 61% 3.0 mph S4.8 kmh S 8.0 mph12.9 kmh 30.00 in1015.9 mb 0.00 in0.0 mm 0.00 in0.0 mm 0.00 in0.0 mm
12:14 AM 48.6°F9.2°C 35.8°F2.1°C 61% 4.0 mph SSE6.4 kmh SSE 8.0 mph12.9 kmh 30.00 in1015.9 mb 0.00 in0.0 mm 0.00 in0.0 mm 0.00 in0.0 mm
12:13 AM 48.6°F9.2°C 35.8°F2.1°C 61% 5.0 mph SSE8.0 kmh SSE 8.0 mph12.9 kmh 30.00 in1015.9 mb 0.00 in0.0 mm 0.00 in0.0 mm 0.00 in0.0 mm
12:00 AM 48.6°F9.2°C 35.8°F2.1°C 61% 3.0 mph S4.8 kmh S 9.0 mph14.5 kmh 29.99 in1015.6 mb 0.00 in0.0 mm 0.00 in0.0 mm 0.00 in0.0 mm